Time;durP1;ratioP1;P1;durP2;ratioP2;P2;SDS_P1;SDS_P2;PMS_P1;PMS_P2;Temp;Humidity;BMP_temperature;BMP_pressure;BME280_temperature;BME280_humidity;BME280_pressure;Samples;Min_cycle;Max_cycle;Signal;HPM_P1;HPM_P2
2021/09/17 00:00:11;;;;;;;2.78;2.00;;;;;;;8.51;59.40;100182.03;5093118;28;20020;-64
2021/09/17 00:02:36;;;;;;;3.13;2.25;;;;;;;8.45;59.21;100184.13;5093236;28;20039;-65
2021/09/17 00:05:03;;;;;;;3.25;2.30;;;;;;;8.44;59.73;100182.44;5092694;28;20028;-64
2021/09/17 00:07:29;;;;;;;2.10;1.90;;;;;;;8.42;59.43;100183.47;5093236;28;20032;-64
2021/09/17 00:09:54;;;;;;;2.90;2.30;;;;;;;8.39;59.81;100187.19;5093076;28;20069;-64
2021/09/17 00:12:20;;;;;;;2.20;2.00;;;;;;;8.29;59.24;100167.41;5093754;28;20036;-64
2021/09/17 00:14:45;;;;;;;2.40;2.15;;;;;;;8.32;59.95;100177.88;5093363;28;20032;-63
2021/09/17 00:17:11;;;;;;;4.50;2.58;;;;;;;8.35;59.93;100180.34;5092928;28;20028;-64
2021/09/17 00:19:37;;;;;;;2.38;2.08;;;;;;;8.40;59.80;100178.22;5093182;28;20054;-64
2021/09/17 00:22:03;;;;;;;4.35;2.35;;;;;;;8.42;59.53;100178.97;5093559;28;20107;-64
2021/09/17 00:24:28;;;;;;;3.70;2.50;;;;;;;8.44;59.67;100179.75;5092913;28;20031;-63
2021/09/17 00:26:54;;;;;;;2.90;2.60;;;;;;;8.45;59.52;100184.13;5093253;28;20360;-64
2021/09/17 00:29:19;;;;;;;3.90;2.42;;;;;;;8.46;59.45;100175.19;5093037;28;20032;-65
2021/09/17 00:31:45;;;;;;;3.22;2.42;;;;;;;8.44;59.22;100166.41;5092707;28;20043;-65
2021/09/17 00:34:10;;;;;;;3.03;2.55;;;;;;;8.45;59.43;100172.59;5092665;28;20032;-65
2021/09/17 00:36:36;;;;;;;3.35;2.65;;;;;;;8.39;59.86;100168.50;5091190;28;20051;-65
2021/09/17 00:39:03;;;;;;;5.35;2.80;;;;;;;8.42;60.07;100172.81;5093407;28;20039;-65
2021/09/17 00:41:29;;;;;;;6.80;2.85;;;;;;;8.35;60.11;100167.00;5092391;28;20079;-64
2021/09/17 00:43:55;;;;;;;3.90;2.80;;;;;;;8.38;60.32;100171.31;5092846;28;20052;-63
2021/09/17 00:46:20;;;;;;;3.63;2.42;;;;;;;8.37;60.49;100173.09;5092699;28;20375;-65
2021/09/17 00:48:46;;;;;;;4.97;2.83;;;;;;;8.14;60.63;100131.94;5092126;28;20116;-65
2021/09/17 00:51:11;;;;;;;3.60;2.60;;;;;;;8.41;60.39;100171.09;5092703;28;20463;-65
2021/09/17 00:53:37;;;;;;;2.75;2.47;;;;;;;8.37;60.40;100169.59;5092762;28;20526;-64
2021/09/17 00:56:04;;;;;;;4.70;2.97;;;;;;;8.40;60.71;100174.72;5098872;28;20034;-65
2021/09/17 00:58:30;;;;;;;2.95;2.60;;;;;;;8.38;61.05;100169.47;5112801;28;20080;-64
2021/09/17 01:00:56;;;;;;;5.88;2.90;;;;;;;8.36;60.78;100174.06;5113283;28;20034;-65
2021/09/17 01:03:23;;;;;;;3.60;2.75;;;;;;;8.36;60.95;100175.88;5112788;28;20031;-64
2021/09/17 01:05:52;;;;;;;4.45;3.20;;;;;;;8.34;61.04;100167.97;5093259;28;20061;-65
2021/09/17 01:08:17;;;;;;;3.88;2.90;;;;;;;8.40;61.21;100164.03;5091687;28;20930;-64
2021/09/17 01:10:43;;;;;;;4.30;2.72;;;;;;;8.36;61.29;100162.53;5107336;28;20039;-64
2021/09/17 01:13:09;;;;;;;3.40;2.90;;;;;;;8.37;61.45;100164.25;5091907;28;20028;-65
2021/09/17 01:15:36;;;;;;;3.60;2.92;;;;;;;8.11;61.32;100121.47;5091929;28;20418;-65
2021/09/17 01:18:01;;;;;;;4.15;2.60;;;;;;;8.27;61.45;100156.84;5092541;28;20024;-64
2021/09/17 01:20:27;;;;;;;6.55;3.30;;;;;;;8.27;61.88;100158.66;5092622;28;20020;-64
2021/09/17 01:22:52;;;;;;;5.18;2.97;;;;;;;8.26;61.69;100167.63;5091763;28;20358;-65
2021/09/17 01:25:20;;;;;;;5.07;3.20;;;;;;;8.29;61.82;100170.94;5091456;28;20043;-64
2021/09/17 01:27:48;;;;;;;4.35;3.10;;;;;;;8.28;62.15;100174.56;5092122;28;20035;-65
2021/09/17 01:30:15;;;;;;;4.18;3.08;;;;;;;8.27;61.96;100158.66;5092071;28;20475;-64
2021/09/17 01:32:43;;;;;;;5.57;3.33;;;;;;;8.25;62.12;100157.91;5091477;28;20031;-63
2021/09/17 01:35:11;;;;;;;7.07;3.08;;;;;;;8.27;62.01;100166.66;5091492;28;20506;-63
2021/09/17 01:37:37;;;;;;;4.57;2.83;;;;;;;8.27;62.00;100161.34;5091889;28;20247;-63
2021/09/17 01:40:05;;;;;;;4.95;2.80;;;;;;;8.29;62.24;100165.59;5092037;28;20042;-64
2021/09/17 01:42:30;;;;;;;3.70;3.10;;;;;;;8.26;62.25;100162.28;5091464;28;20084;-62
2021/09/17 01:44:56;;;;;;;4.03;2.92;;;;;;;8.28;62.45;100157.72;5091385;28;20032;-64
2021/09/17 01:47:21;;;;;;;5.22;2.80;;;;;;;8.28;62.06;100155.03;5091404;28;20468;-64
2021/09/17 01:49:47;;;;;;;3.58;2.92;;;;;;;8.27;62.04;100156.00;5091596;28;20036;-65
2021/09/17 01:52:12;;;;;;;3.40;2.60;;;;;;;8.28;62.10;100157.72;5091180;28;20468;-64
2021/09/17 01:54:40;;;;;;;5.60;2.67;;;;;;;8.30;62.24;100158.47;5091471;28;20031;-64
2021/09/17 01:57:06;;;;;;;5.60;3.22;;;;;;;8.23;62.08;100146.50;5091047;28;20498;-63
2021/09/17 01:59:31;;;;;;;3.42;3.05;;;;;;;8.22;62.05;100145.63;5091268;28;20070;-62
2021/09/17 02:01:57;;;;;;;5.07;3.17;;;;;;;8.27;62.13;100159.50;5091564;28;20036;-64
2021/09/17 02:04:22;;;;;;;4.65;3.50;;;;;;;8.23;61.94;100152.66;5089936;28;20055;-65
2021/09/17 02:06:47;;;;;;;4.10;2.70;;;;;;;8.19;62.42;100145.81;5091291;28;20039;-64
2021/09/17 02:09:13;;;;;;;5.05;3.47;;;;;;;8.19;62.67;100159.16;5091459;28;20107;-64
2021/09/17 02:11:38;;;;;;;3.97;3.08;;;;;;;8.18;62.59;100157.47;5090913;28;20364;-65
2021/09/17 02:14:04;;;;;;;7.15;3.28;;;;;;;7.98;62.50;100121.44;5090964;28;20024;-65
2021/09/17 02:16:30;;;;;;;4.50;3.05;;;;;;;8.22;62.62;100158.13;5091582;28;20036;-65
2021/09/17 02:18:55;;;;;;;4.43;3.42;;;;;;;8.21;62.65;100148.41;5089608;28;20165;-66
2021/09/17 02:21:22;;;;;;;4.68;2.97;;;;;;;8.22;62.55;100153.63;5089070;28;20031;-63
2021/09/17 02:23:48;;;;;;;8.70;3.60;;;;;;;8.26;62.48;100156.97;5091194;28;20083;-64
2021/09/17 02:26:15;;;;;;;4.13;3.45;;;;;;;8.30;61.90;100148.63;5091338;28;20036;-64
2021/09/17 02:28:40;;;;;;;5.22;3.58;;;;;;;8.28;61.99;100153.22;5090811;28;20570;-65
2021/09/17 02:31:06;;;;;;;5.63;3.60;;;;;;;8.27;61.80;100150.66;5090839;28;20123;-64
2021/09/17 02:33:33;;;;;;;6.40;3.72;;;;;;;8.21;61.88;100146.56;5091480;28;20054;-64
2021/09/17 02:35:59;;;;;;;7.40;3.70;;;;;;;8.26;62.05;100154.28;5090773;28;20063;-67
2021/09/17 02:38:25;;;;;;;6.35;3.67;;;;;;;8.23;62.13;100154.50;5090860;28;20032;-64
2021/09/17 02:40:52;;;;;;;7.10;3.92;;;;;;;8.26;62.27;100156.97;5090598;28;20483;-65
2021/09/17 02:43:17;;;;;;;7.28;3.75;;;;;;;8.23;62.26;100154.50;5091063;28;20526;-64
2021/09/17 02:45:43;;;;;;;6.70;4.10;;;;;;;8.29;62.46;100162.09;5090972;28;20028;-65
2021/09/17 02:48:08;;;;;;;7.45;4.03;;;;;;;8.28;62.35;100160.38;5090620;28;20035;-64
2021/09/17 02:50:34;;;;;;;7.53;4.18;;;;;;;8.11;62.77;100140.16;5090897;28;20021;-63
2021/09/17 02:52:59;;;;;;;8.73;4.65;;;;;;;8.30;61.90;100155.78;5091568;28;20032;-64
2021/09/17 02:55:25;;;;;;;10.75;4.50;;;;;;;8.31;62.29;100162.84;5091049;28;20032;-64
2021/09/17 02:57:50;;;;;;;5.30;4.00;;;;;;;8.20;62.56;100158.22;5092930;28;20082;-64
2021/09/17 03:00:16;;;;;;;7.07;3.97;;;;;;;8.21;62.59;100164.41;5094829;28;20036;-65
2021/09/17 03:02:42;;;;;;;6.57;3.67;;;;;;;8.20;63.04;100158.22;5093338;28;20031;-65
2021/09/17 03:05:08;;;;;;;7.32;3.97;;;;;;;8.29;62.80;100162.09;5094049;28;20036;-64
2021/09/17 03:07:33;;;;;;;8.02;4.15;;;;;;;8.22;62.85;100160.78;5093519;28;20395;-64
2021/09/17 03:09:59;;;;;;;6.68;4.00;;;;;;;8.23;62.64;100166.00;5094292;28;20028;-65
2021/09/17 03:12:24;;;;;;;6.63;4.38;;;;;;;8.16;62.61;100162.88;5094573;28;20032;-64
2021/09/17 03:14:50;;;;;;;5.88;4.15;;;;;;;8.19;62.79;100172.50;5093661;28;20050;-64
2021/09/17 03:17:15;;;;;;;6.13;3.60;;;;;;;8.16;62.58;100168.22;5094343;28;20024;-65
2021/09/17 03:19:40;;;;;;;5.93;3.78;;;;;;;8.16;63.00;100167.38;5093950;28;20073;-65
2021/09/17 03:22:06;;;;;;;7.90;3.60;;;;;;;8.15;63.20;100160.31;5094493;28;20036;-63
2021/09/17 03:24:32;;;;;;;9.35;4.15;;;;;;;7.89;63.14;100114.88;5094658;28;20039;-66
2021/09/17 03:26:57;;;;;;;6.43;3.95;;;;;;;8.18;63.70;100163.63;5094346;28;20024;-65
2021/09/17 03:29:23;;;;;;;6.38;3.60;;;;;;;8.17;63.79;100163.75;5094254;28;20068;-65
2021/09/17 03:31:48;;;;;;;5.72;4.18;;;;;;;8.20;63.50;100163.53;5094051;28;20379;-64
2021/09/17 03:34:14;;;;;;;7.47;3.83;;;;;;;8.23;63.42;100166.00;5093891;28;20092;-65
2021/09/17 03:36:42;;;;;;;6.70;3.95;;;;;;;8.24;63.56;100162.38;5094019;28;20435;-64
2021/09/17 03:39:13;;;;;;;4.57;3.50;;;;;;;8.36;63.57;100173.22;5093026;28;20071;-64
2021/09/17 03:41:39;;;;;;;6.65;4.55;;;;;;;8.36;63.01;100155.38;5093801;28;20139;-63
2021/09/17 03:44:06;;;;;;;7.22;4.30;;;;;;;8.41;62.89;100165.75;5093968;28;20024;-64
2021/09/17 03:46:31;;;;;;;5.70;4.13;;;;;;;8.33;63.25;100160.91;5093634;28;20028;-65
2021/09/17 03:48:57;;;;;;;6.57;4.30;;;;;;;8.36;63.42;100160.72;5093579;28;20914;-64
2021/09/17 03:51:24;;;;;;;5.80;4.10;;;;;;;8.39;63.35;100162.34;5091632;28;20434;-65
2021/09/17 03:53:50;;;;;;;5.25;3.83;;;;;;;8.42;63.27;100162.13;5093432;28;20036;-66
2021/09/17 03:56:15;;;;;;;5.53;3.50;;;;;;;8.43;63.02;100159.34;5093825;28;20074;-65
2021/09/17 03:58:41;;;;;;;5.97;4.40;;;;;;;8.32;63.37;100130.75;5093230;28;20062;-66
2021/09/17 04:01:06;;;;;;;7.03;4.00;;;;;;;8.59;63.10;100164.56;5093892;28;20028;-65
2021/09/17 04:03:32;;;;;;;6.13;4.20;;;;;;;8.67;62.69;100168.53;5093924;28;20306;-65
2021/09/17 04:05:58;;;;;;;5.82;4.28;;;;;;;8.68;63.00;100163.09;5092402;28;20821;-65
2021/09/17 04:08:24;;;;;;;7.25;4.38;;;;;;;8.72;62.65;100164.59;5091488;28;20024;-66
2021/09/17 04:10:49;;;;;;;6.80;4.35;;;;;;;8.79;62.64;100166.84;5091882;28;20164;-64
2021/09/17 04:13:15;;;;;;;5.82;3.92;;;;;;;8.85;62.49;100169.97;5093905;28;20475;-64
2021/09/17 04:15:40;;;;;;;5.78;4.30;;;;;;;8.95;62.11;100175.53;5091565;28;20028;-64
2021/09/17 04:18:06;;;;;;;7.00;4.53;;;;;;;8.79;61.81;100132.97;5093253;28;20475;-65
2021/09/17 04:20:31;;;;;;;6.53;4.20;;;;;;;9.07;61.09;100178.31;5092522;28;20317;-65
2021/09/17 04:22:57;;;;;;;6.75;4.30;;;;;;;9.10;61.07;100173.63;5092437;28;20391;-68
2021/09/17 04:25:22;;;;;;;6.03;3.83;;;;;;;9.13;61.13;100172.53;5092734;28;20039;-67
2021/09/17 04:27:48;;;;;;;5.30;4.05;;;;;;;9.14;60.78;100174.25;5091859;28;20376;-68
2021/09/17 04:30:15;;;;;;;4.78;4.20;;;;;;;9.25;61.12;100176.19;5093259;28;20032;-69
2021/09/17 04:32:44;;;;;;;6.78;4.25;;;;;;;9.30;60.44;100180.25;5092861;28;20052;-67
2021/09/17 04:35:10;;;;;;;6.07;4.15;;;;;;;9.10;60.86;100130.88;5092922;28;20036;-69
2021/09/17 04:37:40;;;;;;;5.60;4.28;;;;;;;9.48;59.93;100182.59;5093190;28;20064;-67
2021/09/17 04:40:06;;;;;;;6.30;3.95;;;;;;;9.50;59.47;100186.00;5092252;28;20150;-69
2021/09/17 04:42:32;;;;;;;5.60;3.83;;;;;;;9.58;59.32;100182.81;5092469;28;20027;-69
2021/09/17 04:44:57;;;;;;;4.70;3.80;;;;;;;9.63;58.08;100157.44;5092743;28;20421;-68
2021/09/17 04:47:23;;;;;;;5.45;3.90;;;;;;;9.89;57.67;100173.44;5092696;28;20410;-68
2021/09/17 04:49:48;;;;;;;6.40;3.30;;;;;;;10.03;56.03;100176.94;5091512;28;20024;-75
2021/09/17 04:52:15;;;;;;;5.85;3.53;;;;;;;10.13;55.59;100177.09;5091455;28;20054;-68
2021/09/17 04:54:40;;;;;;;6.25;3.78;;;;;;;10.11;56.17;100166.50;5092215;28;20032;-66
2021/09/17 04:57:06;;;;;;;4.82;4.15;;;;;;;10.03;56.12;100185.81;5090682;28;20043;-70
2021/09/17 04:59:32;;;;;;;6.72;4.25;;;;;;;9.94;56.27;100180.28;5091463;28;20066;-69
2021/09/17 05:01:57;;;;;;;6.65;4.15;;;;;;;9.90;56.40;100179.63;5090987;28;20394;-69
2021/09/17 05:04:23;;;;;;;4.40;3.85;;;;;;;9.90;56.29;100183.19;5092300;28;20046;-68
2021/09/17 05:06:48;;;;;;;4.47;3.60;;;;;;;9.89;56.77;100184.16;5091842;28;20024;-66
2021/09/17 05:09:13;;;;;;;6.22;4.00;;;;;;;9.86;57.07;100179.00;5092766;28;20476;-67
2021/09/17 05:11:39;;;;;;;7.60;4.63;;;;;;;9.85;56.15;100189.81;5091265;28;20055;-67
2021/09/17 05:14:04;;;;;;;6.07;4.10;;;;;;;9.77;56.55;100182.34;5091036;28;20032;-68
2021/09/17 05:16:32;;;;;;;5.13;4.00;;;;;;;9.84;56.42;100186.28;5090856;28;20028;-67
2021/09/17 05:18:59;;;;;;;6.40;4.50;;;;;;;9.78;54.97;100173.34;5091759;28;20028;-66
2021/09/17 05:21:25;;;;;;;5.57;4.95;;;;;;;9.91;55.32;100187.56;5090927;28;20438;-69
2021/09/17 05:23:50;;;;;;;6.45;4.60;;;;;;;9.97;55.68;100182.72;5090992;28;20032;-68
2021/09/17 05:26:15;;;;;;;11.23;5.70;;;;;;;10.09;54.33;100180.97;5092013;28;20035;-68
2021/09/17 05:28:41;;;;;;;8.23;5.60;;;;;;;10.14;53.82;100174.34;5092335;28;20050;-68
2021/09/17 05:31:06;;;;;;;6.05;4.75;;;;;;;10.16;53.01;100174.22;5092088;28;20036;-66
2021/09/17 05:33:32;;;;;;;8.32;5.15;;;;;;;10.17;53.39;100178.59;5088889;28;20035;-55
2021/09/17 05:35:57;;;;;;;5.80;4.78;;;;;;;10.16;53.13;100188.44;5072289;28;20056;-63
2021/09/17 05:38:23;;;;;;;5.88;4.78;;;;;;;10.17;53.04;100190.16;5070367;28;20408;-61
2021/09/17 05:40:48;;;;;;;7.90;4.60;;;;;;;10.26;53.18;100171.72;5071191;28;20167;-64
2021/09/17 05:43:14;;;;;;;5.70;4.68;;;;;;;10.26;52.83;100166.34;5053450;28;20032;-61
2021/09/17 05:45:39;;;;;;;8.38;4.50;;;;;;;10.23;52.73;100167.44;5071489;28;20119;-71
2021/09/17 05:48:05;;;;;;;6.38;4.97;;;;;;;10.24;53.27;100179.00;5072414;28;20210;-62
2021/09/17 05:50:31;;;;;;;8.25;5.13;;;;;;;10.29;53.20;100164.31;5080190;28;20041;-57
2021/09/17 05:52:56;;;;;;;7.50;5.07;;;;;;;10.37;53.52;100166.44;5081011;28;20024;-58
2021/09/17 05:55:27;;;;;;;9.82;5.28;;;;;;;10.40;53.41;100163.56;5080767;28;20034;-62
2021/09/17 05:57:53;;;;;;;7.65;5.00;;;;;;;10.40;53.33;100163.56;5079156;28;20029;-59
2021/09/17 06:00:19;;;;;;;6.20;4.80;;;;;;;10.46;53.17;100157.72;5080192;28;20040;-63
2021/09/17 06:02:44;;;;;;;6.47;4.88;;;;;;;10.63;51.98;100159.13;5079997;28;20199;-63
2021/09/17 06:05:10;;;;;;;7.75;4.97;;;;;;;10.50;52.70;100144.97;5079674;28;20072;-62
2021/09/17 06:07:53;;;;;;;9.60;4.80;;;;;;;10.48;53.33;100142.41;5071295;28;20035;-61
2021/09/17 06:10:20;;;;;;;6.88;5.15;;;;;;;10.35;53.28;100163.00;5081063;28;20025;-61
2021/09/17 06:12:45;;;;;;;7.78;4.80;;;;;;;10.30;52.38;100149.09;5079224;28;20036;-71
2021/09/17 06:15:12;;;;;;;7.28;4.75;;;;;;;10.25;52.57;100173.56;5080308;28;20146;-64
2021/09/17 06:17:40;;;;;;;8.43;4.63;;;;;;;10.00;52.90;100156.59;5084847;28;20035;-63
2021/09/17 06:20:07;;;;;;;5.30;4.40;;;;;;;9.84;53.33;100177.41;5091104;28;20062;-60
2021/09/17 06:22:33;;;;;;;7.15;4.63;;;;;;;9.85;51.39;100163.91;5090502;28;20028;-59
2021/09/17 06:24:58;;;;;;;6.63;4.28;;;;;;;9.88;50.50;100169.03;5091484;28;20039;-58
2021/09/17 06:27:24;;;;;;;5.70;4.65;;;;;;;9.59;50.53;100169.31;5090787;28;20067;-60
2021/09/17 06:29:49;;;;;;;6.50;4.30;;;;;;;9.58;50.10;100175.63;5089577;28;20051;-59
2021/09/17 06:32:15;;;;;;;6.68;4.72;;;;;;;9.48;50.26;100175.41;5090877;28;20459;-62
2021/09/17 06:34:40;;;;;;;6.65;5.28;;;;;;;9.21;51.13;100135.47;5091329;28;20380;-55
2021/09/17 06:37:06;;;;;;;6.45;4.70;;;;;;;9.48;50.70;100172.75;5090643;28;20238;-56
2021/09/17 06:39:32;;;;;;;8.13;5.35;;;;;;;9.61;51.05;100178.06;5083281;28;20033;-59
2021/09/17 06:41:59;;;;;;;6.80;5.35;;;;;;;9.69;50.49;100182.88;5069252;28;20106;-57
2021/09/17 06:44:25;;;;;;;7.22;5.22;;;;;;;9.68;49.60;100172.31;5079048;28;20035;-57
2021/09/17 06:46:50;;;;;;;9.93;5.22;;;;;;;9.50;51.12;100174.44;5087636;28;20024;-55
2021/09/17 06:49:16;;;;;;;7.40;5.28;;;;;;;9.45;50.81;100177.47;5090686;28;20032;-57
2021/09/17 06:51:42;;;;;;;8.90;4.70;;;;;;;9.57;47.20;100187.28;5088797;28;20119;-57
2021/09/17 06:54:07;;;;;;;5.40;4.20;;;;;;;9.41;48.18;100194.69;5090623;28;20067;-55
2021/09/17 06:56:33;;;;;;;7.97;4.60;;;;;;;9.38;47.64;100178.84;5090789;28;20031;-57
2021/09/17 06:58:58;;;;;;;6.93;4.30;;;;;;;9.29;46.63;100186.56;5090343;28;20439;-52
2021/09/17 07:01:25;;;;;;;11.30;4.00;;;;;;;9.33;45.76;100174.69;5090745;28;20032;-54
2021/09/17 07:03:51;;;;;;;6.05;3.90;;;;;;;9.44;44.71;100183.78;5090788;28;20157;-52
2021/09/17 07:06:16;;;;;;;7.45;4.68;;;;;;;9.46;45.51;100189.88;5091051;28;20024;-54
2021/09/17 07:08:42;;;;;;;5.43;4.30;;;;;;;9.39;45.18;100188.56;5086227;28;20026;-57
2021/09/17 07:11:07;;;;;;;5.15;3.67;;;;;;;9.48;42.39;100195.97;5072649;28;20143;-51
2021/09/17 07:13:33;;;;;;;4.32;3.67;;;;;;;9.44;43.23;100186.44;5079216;28;20024;-65
2021/09/17 07:15:58;;;;;;;4.68;3.35;;;;;;;9.60;41.34;100196.91;5080470;28;20046;-59
2021/09/17 07:18:24;;;;;;;4.88;3.75;;;;;;;9.48;42.27;100187.94;5080458;28;20059;-61
2021/09/17 07:20:50;;;;;;;4.63;3.75;;;;;;;9.27;40.97;100143.06;5081698;28;20063;-69
2021/09/17 07:23:16;;;;;;;5.57;3.88;;;;;;;9.39;42.16;100183.22;5090610;28;20077;-66
2021/09/17 07:25:42;;;;;;;3.92;2.75;;;;;;;9.53;42.03;100180.44;5089924;28;20028;-62
2021/09/17 07:28:07;;;;;;;5.90;2.95;;;;;;;9.67;41.57;100176.78;5082366;28;20190;-66
2021/09/17 07:30:33;;;;;;;6.60;3.78;;;;;;;9.68;41.34;100173.16;5078743;28;20054;-64
2021/09/17 07:32:58;;;;;;;5.68;3.83;;;;;;;9.63;41.21;100143.22;5078710;28;20055;-63
2021/09/17 07:35:24;;;;;;;6.22;3.70;;;;;;;9.79;41.41;100137.63;5078079;28;20487;-65
2021/09/17 07:37:50;;;;;;;4.50;3.30;;;;;;;9.94;41.45;100140.16;5076145;28;20523;-67
2021/09/17 07:40:17;;;;;;;7.18;3.95;;;;;;;10.29;39.57;100176.84;5077692;28;20107;-69
2021/09/17 07:42:44;;;;;;;5.20;3.28;;;;;;;10.30;39.24;100182.09;5075953;28;20044;-67
2021/09/17 07:45:10;;;;;;;5.38;3.60;;;;;;;9.88;40.74;100186.91;5078293;28;20047;-67
2021/09/17 07:47:36;;;;;;;4.45;3.00;;;;;;;9.93;39.48;100192.78;5071714;28;20108;-67
2021/09/17 07:50:03;;;;;;;4.13;3.28;;;;;;;9.91;39.93;100187.56;5084164;28;20103;-67
2021/09/17 07:52:29;;;;;;;8.10;3.75;;;;;;;9.62;40.98;100153.06;5090112;28;20032;-69
2021/09/17 07:54:54;;;;;;;4.30;3.22;;;;;;;9.87;40.87;100199.41;5092988;28;20036;-70
2021/09/17 07:57:20;;;;;;;6.00;3.70;;;;;;;9.88;40.75;100193.09;5092004;28;20511;-69
2021/09/17 07:59:45;;;;;;;5.35;3.53;;;;;;;9.95;40.82;100200.72;5089815;28;20480;-73
2021/09/17 08:02:11;;;;;;;5.45;3.65;;;;;;;9.95;41.27;100185.50;5082112;28;20043;-72
2021/09/17 08:04:38;;;;;;;8.20;3.70;;;;;;;10.01;41.46;100193.09;5083280;28;20448;-68
2021/09/17 08:07:07;;;;;;;4.47;3.75;;;;;;;10.09;41.05;100200.56;5078044;28;20032;-61
2021/09/17 08:09:33;;;;;;;7.47;3.85;;;;;;;10.01;41.45;100187.75;5073257;28;20090;-60
2021/09/17 08:11:59;;;;;;;5.90;4.10;;;;;;;10.08;41.79;100198.00;5089907;28;20077;-61
2021/09/17 08:14:25;;;;;;;5.80;4.18;;;;;;;10.14;41.34;100198.41;5091681;28;20024;-67
2021/09/17 08:16:51;;;;;;;9.02;3.92;;;;;;;10.19;40.76;100193.56;5091832;28;20393;-65
2021/09/17 08:19:16;;;;;;;6.10;3.70;;;;;;;10.02;40.48;100175.22;5090149;28;20028;-63
2021/09/17 08:21:43;;;;;;;5.93;3.70;;;;;;;10.08;40.69;100204.19;5084210;28;20040;-63
2021/09/17 08:24:14;;;;;;;5.10;3.50;;;;;;;10.02;41.63;100202.84;5089602;28;20040;-62
2021/09/17 08:26:51;;;;;;;6.75;4.18;;;;;;;10.03;41.48;100203.69;5072373;28;20148;-62
2021/09/17 08:29:17;;;;;;;5.47;3.88;;;;;;;9.85;41.71;100179.97;5081253;28;20023;-61
2021/09/17 08:31:59;;;;;;;9.63;4.47;;;;;;;9.92;40.71;100193.75;5071422;28;20033;-60
2021/09/17 08:34:45;;;;;;;9.75;4.35;;;;;;;9.94;41.60;100204.34;5072604;28;20059;-61
2021/09/17 08:37:30;;;;;;;6.25;4.10;;;;;;;10.05;40.92;100201.75;5071093;28;20440;-62
2021/09/17 08:40:16;;;;;;;8.75;4.63;;;;;;;10.12;41.41;100199.47;5070424;28;20079;-60
2021/09/17 08:42:43;;;;;;;8.05;5.80;;;;;;;10.12;41.03;100188.78;5070938;28;20024;-62
2021/09/17 08:45:09;;;;;;;7.50;4.80;;;;;;;9.97;41.42;100188.91;5072161;28;20032;-64
2021/09/17 08:47:34;;;;;;;6.45;4.80;;;;;;;9.94;41.34;100164.22;5072455;28;20044;-61
2021/09/17 08:50:00;;;;;;;5.85;4.32;;;;;;;9.99;40.88;100175.44;5072702;28;20043;-61
2021/09/17 08:52:25;;;;;;;6.38;4.40;;;;;;;9.83;41.21;100136.44;5072925;28;20024;-62
2021/09/17 08:54:51;;;;;;;7.82;5.18;;;;;;;10.14;41.13;100174.34;5072971;28;20029;-61
2021/09/17 08:57:17;;;;;;;6.25;4.07;;;;;;;10.38;40.73;100176.16;5072057;28;20032;-60
2021/09/17 08:59:43;;;;;;;8.85;4.57;;;;;;;10.50;40.98;100186.94;5072835;28;20035;-62
2021/09/17 09:02:22;;;;;;;8.10;4.38;;;;;;;10.75;41.08;100178.78;5072409;28;20421;-63
2021/09/17 09:05:14;;;;;;;8.88;4.45;;;;;;;11.18;40.77;100166.56;5054058;28;20032;-61
2021/09/17 09:07:39;;;;;;;6.72;4.20;;;;;;;11.43;39.27;100169.19;5066865;28;20041;-61
2021/09/17 09:10:11;;;;;;;8.45;4.75;;;;;;;11.72;39.26;100171.34;5054535;28;20412;-61
2021/09/17 09:12:44;;;;;;;7.05;4.30;;;;;;;11.95;37.81;100171.34;5071611;28;20392;-61
2021/09/17 09:15:17;;;;;;;7.20;4.07;;;;;;;11.96;37.00;100163.19;5071932;28;20119;-61
2021/09/17 09:17:44;;;;;;;6.70;3.92;;;;;;;12.09;36.34;100167.56;5070473;28;20495;-61
2021/09/17 09:20:25;;;;;;;5.97;4.22;;;;;;;11.96;36.62;100176.59;5071807;28;20542;-61
2021/09/17 09:23:23;;;;;;;6.82;4.35;;;;;;;11.90;37.54;100172.56;5072139;28;20025;-61
2021/09/17 09:26:02;;;;;;;10.65;5.00;;;;;;;11.61;36.83;100143.59;5070004;28;20029;-60
2021/09/17 09:28:36;;;;;;;7.03;4.50;;;;;;;12.01;37.71;100176.22;5071360;28;20206;-62
2021/09/17 09:31:11;;;;;;;9.82;4.78;;;;;;;12.12;36.70;100164.63;5071336;28;20108;-62
2021/09/17 09:33:38;;;;;;;9.00;4.43;;;;;;;12.22;36.63;100167.41;5071177;28;20051;-61
2021/09/17 09:36:10;;;;;;;8.27;4.00;;;;;;;12.46;37.01;100160.00;5071507;28;20075;-60
2021/09/17 09:38:50;;;;;;;8.82;4.45;;;;;;;12.73;36.40;100155.97;5071281;28;20044;-60
2021/09/17 09:41:22;;;;;;;5.13;4.32;;;;;;;12.96;34.97;100165.78;5071685;28;20144;-61
2021/09/17 09:43:49;;;;;;;6.45;4.35;;;;;;;12.85;35.12;100153.25;5071538;28;20028;-61
2021/09/17 09:46:21;;;;;;;8.65;4.45;;;;;;;12.99;35.40;100160.13;5069707;28;20039;-61
2021/09/17 09:48:58;;;;;;;5.75;4.50;;;;;;;13.34;35.76;100170.53;5071314;28;20248;-61
2021/09/17 09:51:27;;;;;;;7.82;4.25;;;;;;;13.20;34.78;100165.47;5071762;28;20033;-60
2021/09/17 09:53:53;;;;;;;6.10;4.25;;;;;;;13.05;35.41;100165.84;5071464;28;20119;-61
2021/09/17 09:56:21;;;;;;;7.53;4.95;;;;;;;12.84;36.14;100162.28;5071173;28;20047;-61
2021/09/17 09:58:50;;;;;;;7.70;4.60;;;;;;;12.44;37.47;100175.41;5071024;28;20798;-62
2021/09/17 10:01:23;;;;;;;8.80;4.53;;;;;;;12.24;38.34;100168.13;5071235;28;20097;-59
2021/09/17 10:03:53;;;;;;;10.43;4.85;;;;;;;12.11;38.99;100185.25;5070898;28;20032;-61
2021/09/17 10:06:20;;;;;;;8.20;4.47;;;;;;;12.14;36.87;100179.63;5070788;28;20024;-61
2021/09/17 10:08:48;;;;;;;13.18;4.70;;;;;;;11.81;37.90;100181.34;5071208;28;20119;-62
2021/09/17 10:11:15;;;;;;;5.93;4.03;;;;;;;11.45;38.13;100151.13;5070801;28;20055;-60
2021/09/17 10:13:40;;;;;;;7.90;4.00;;;;;;;11.65;36.16;100192.44;5070781;28;20472;-61
2021/09/17 10:16:06;;;;;;;5.28;3.88;;;;;;;11.36;37.42;100171.47;5071227;28;20040;-61
2021/09/17 10:18:32;;;;;;;5.45;3.67;;;;;;;11.29;37.33;100144.28;5070623;28;20029;-61
2021/09/17 10:20:57;;;;;;;7.03;3.72;;;;;;;11.65;37.52;100173.69;5070650;28;20025;-61
2021/09/17 10:23:27;;;;;;;5.38;3.60;;;;;;;11.81;36.40;100189.38;5070553;28;20489;-61
2021/09/17 10:26:06;;;;;;;5.63;3.35;;;;;;;11.76;36.61;100184.41;5070961;28;20035;-60
2021/09/17 10:28:33;;;;;;;4.75;2.97;;;;;;;11.56;37.32;100183.31;5070472;28;20038;-62
2021/09/17 10:31:16;;;;;;;4.95;3.55;;;;;;;11.69;36.91;100177.81;5070563;28;20032;-61
2021/09/17 10:33:42;;;;;;;6.22;4.03;;;;;;;11.65;36.87;100187.09;5070896;28;20372;-61
2021/09/17 10:36:08;;;;;;;5.88;3.85;;;;;;;11.58;37.42;100186.75;5070717;28;20060;-62
2021/09/17 10:38:34;;;;;;;4.60;3.50;;;;;;;11.57;37.17;100182.31;5069510;28;20030;-61
2021/09/17 10:41:01;;;;;;;6.55;3.53;;;;;;;11.68;37.17;100188.69;5070410;28;20087;-61
2021/09/17 10:43:30;;;;;;;5.40;3.50;;;;;;;11.69;37.07;100191.22;5069956;28;20081;-62
2021/09/17 10:46:01;;;;;;;7.38;4.03;;;;;;;11.84;36.69;100191.84;5071168;28;20038;-61
2021/09/17 10:48:52;;;;;;;6.40;3.67;;;;;;;11.82;37.60;100193.81;5071021;28;20032;-63
2021/09/17 10:51:38;;;;;;;5.18;3.67;;;;;;;11.61;37.88;100185.63;5069096;28;20032;-63
2021/09/17 10:54:06;;;;;;;7.90;4.28;;;;;;;11.51;37.98;100195.38;5070396;28;20422;-61
2021/09/17 10:56:48;;;;;;;6.97;4.20;;;;;;;11.75;38.63;100187.22;5069621;28;20044;-61
2021/09/17 10:59:21;;;;;;;8.50;4.63;;;;;;;11.76;39.08;100192.47;5070424;28;20504;-61
2021/09/17 11:02:07;;;;;;;7.88;5.10;;;;;;;12.07;38.39;100186.50;5070715;28;20025;-63
2021/09/17 11:04:33;;;;;;;;;;;;;;;12.14;38.33;100179.63;5071165;28;20044;-61
2021/09/17 11:07:17;;;;;;;7.70;5.18;;;;;;;11.71;39.10;100194.66;5070753;28;19951;-62
2021/09/17 11:09:49;;;;;;;8.25;4.88;;;;;;;11.54;39.96;100190.63;5069997;28;20512;-62
2021/09/17 11:12:20;;;;;;;7.53;4.43;;;;;;;11.62;39.40;100192.69;5070286;28;20170;-61
2021/09/17 11:15:08;;;;;;;6.88;4.10;;;;;;;11.77;38.62;100193.31;5069386;28;20033;-61
2021/09/17 11:17:42;;;;;;;5.68;3.38;;;;;;;11.54;38.07;100195.97;5070504;28;20575;-62
2021/09/17 11:20:19;;;;;;;5.57;3.53;;;;;;;11.38;38.88;100196.34;5072842;28;20040;-61
2021/09/17 11:22:51;;;;;;;5.30;3.53;;;;;;;11.29;39.49;100192.53;5073891;28;20260;-60
2021/09/17 11:25:41;;;;;;;5.53;3.50;;;;;;;11.25;39.43;100185.72;5073620;28;20392;-62
2021/09/17 11:28:27;;;;;;;7.03;3.13;;;;;;;11.21;39.43;100200.34;5073713;28;20029;-62
2021/09/17 11:30:53;;;;;;;5.25;3.42;;;;;;;11.29;38.83;100197.06;5073815;28;20472;-60